13CL weather

Maine Prairie Airport
Dixon, California, United States

Public forecast

Using degrees Fahrenheit for public forecast. Weather courtesy of forecast.io.

Closest aviation weather report (METAR) to Maine Prairie Airport

Closest report is Nut Tree Airport, 6.5 nm (12.0 km) W. Retrieved 2019/12/07 00:53 UTC (17 minutes ago):

KVCB 070053Z AUTO 20006KT 10SM FEW038 OVC048 16/11 A2994 RMK AO2 SLP139 T01610111

Closest aviation forecast (TAF) to Maine Prairie Airport

Closest forecast is Travis Air Force Base, 8.6 nm (16.0 km) SW. Retrieved 2019/12/06 19:17 UTC (6 hours ago):

TAF KSUU 061904Z 0619/0801 09009KT 8000 BR BKN015 QNH2997INS TEMPO 0619/0621 4000 BR BKN005 BECMG 0620/0621 14012G18KT 9999 NSW SCT015 BKN025 QNH2994INS BECMG 0702/0703 14015G25KT 8000 -SHRA BKN010 OVC020 QNH2995INS TEMPO 0703/0711 14025G35KT 3200 RA BR BKN005 BECMG 0717/0718 14015G25KT 8000 SHRA VCTS BKN015CB OVC025 QNH2987INS TEMPO 0721/0800 14025G35KT 3200 -RA BR BKN005 BECMG 0800/0801 23015G25KT 8000 -SHRA BKN010 OVC025 QNH2987INS TX17/0623Z TN10/0712Z